N853PA EDDS-EDDS

Flight info

Callsign N853PA
Flight time 0h 4m
Altitude
Route
Aircraft C172

Departure

Time 2026-05-04 17:02
Airport Stuttgart Airport (EDDS)

Arrival

Time 2026-05-04 17:07
Airport Stuttgart Airport (EDDS)
Time Latitude Longitude Altitude Speed Heading
2026-05-04 16:52 48.68899 9.20031 1280 ft 0 kts 164°
2026-05-04 16:55 48.68839 9.20047 1280 ft 19 kts 175°
2026-05-04 16:56 48.68748 9.19954 1280 ft 4 kts 154°
2026-05-04 16:56 48.68673 9.19991 1280 ft 0 kts 161°
2026-05-04 17:00 48.68622 9.20020 1280 ft 16 kts 160°
2026-05-04 17:01 48.68596 9.20133 1280 ft 0 kts 73°
2026-05-04 17:01 48.68612 9.20210 1280 ft 28 kts 73°
2026-05-04 17:02 48.68856 9.21559 1426 ft 79 kts 67°
2026-05-04 17:02 48.69136 9.23144 1907 ft 72 kts 68°
2026-05-04 17:03 48.69307 9.24145 1913 ft 94 kts 68°
2026-05-04 17:03 48.69502 9.24984 2283 ft 84 kts 44°
2026-05-04 17:03 48.70355 9.24313 2373 ft 110 kts 266°
2026-05-04 17:04 48.70002 9.22284 2392 ft 89 kts 270°
2026-05-04 17:04 48.69822 9.20536 2403 ft 88 kts 266°
2026-05-04 17:05 48.69590 9.18864 2388 ft 82 kts 265°
2026-05-04 17:05 48.69059 9.17410 2191 ft 97 kts 176°
2026-05-04 17:06 48.68297 9.18443 1853 ft 85 kts 83°
2026-05-04 17:06 48.68433 9.19321 1433 ft 81 kts 77°
2026-05-04 17:07 48.68706 9.20716 1286 ft 60 kts 70°
2026-05-04 17:07 48.68772 9.21058 1280 ft 44 kts 72°
2026-05-04 17:07 48.68863 9.21471 1280 ft 16 kts 37°
2026-05-04 17:07 48.68936 9.21471 1280 ft 8 kts 344°
2026-05-04 17:08 48.68947 9.21467 1280 ft 0 kts 346°
2026-05-04 17:09 48.68950 9.21466 1280 ft 5 kts 344°
2026-05-04 17:09 48.69038 9.21428 1280 ft 19 kts 347°
2026-05-04 17:09 48.69078 9.21279 1280 ft 15 kts 258°
2026-05-04 17:10 48.69036 9.21064 1280 ft 9 kts 251°
2026-05-04 17:10 48.69025 9.20825 1280 ft 9 kts 294°
2026-05-04 17:11 48.69073 9.20762 1280 ft 0 kts 349°